sensor_id;sensor_type;location;lat;lon;timestamp;P1;durP1;ratioP1;P2;durP2;ratioP2
5821;SDS011;2937;48.562;8.022;2023-02-23T00:00:41;35.17;;;21.13;;
5821;SDS011;2937;48.562;8.022;2023-02-23T00:05:35;30.63;;;19.53;;
5821;SDS011;2937;48.562;8.022;2023-02-23T00:10:29;29.80;;;19.03;;
5821;SDS011;2937;48.562;8.022;2023-02-23T00:15:23;27.80;;;18.17;;
5821;SDS011;2937;48.562;8.022;2023-02-23T00:20:17;28.83;;;18.00;;
5821;SDS011;2937;48.562;8.022;2023-02-23T00:25:15;29.50;;;18.90;;
5821;SDS011;2937;48.562;8.022;2023-02-23T00:30:11;30.17;;;18.40;;
5821;SDS011;2937;48.562;8.022;2023-02-23T00:35:04;23.33;;;16.47;;
5821;SDS011;2937;48.562;8.022;2023-02-23T00:40:01;30.50;;;16.40;;
5821;SDS011;2937;48.562;8.022;2023-02-23T00:44:56;26.60;;;16.07;;
5821;SDS011;2937;48.562;8.022;2023-02-23T00:49:52;24.57;;;15.50;;
5821;SDS011;2937;48.562;8.022;2023-02-23T00:54:44;25.90;;;15.83;;
5821;SDS011;2937;48.562;8.022;2023-02-23T00:59:37;23.63;;;16.73;;
5821;SDS011;2937;48.562;8.022;2023-02-23T01:04:30;27.07;;;16.40;;
5821;SDS011;2937;48.562;8.022;2023-02-23T01:09:24;26.30;;;16.17;;
5821;SDS011;2937;48.562;8.022;2023-02-23T01:14:19;24.97;;;17.07;;
5821;SDS011;2937;48.562;8.022;2023-02-23T01:19:12;23.97;;;15.17;;
5821;SDS011;2937;48.562;8.022;2023-02-23T01:24:05;26.70;;;15.27;;
5821;SDS011;2937;48.562;8.022;2023-02-23T01:29:00;29.53;;;16.67;;
5821;SDS011;2937;48.562;8.022;2023-02-23T01:33:54;24.33;;;15.13;;
5821;SDS011;2937;48.562;8.022;2023-02-23T01:38:47;28.20;;;16.30;;
5821;SDS011;2937;48.562;8.022;2023-02-23T01:43:53;26.37;;;16.10;;
5821;SDS011;2937;48.562;8.022;2023-02-23T01:48:47;23.77;;;15.90;;
5821;SDS011;2937;48.562;8.022;2023-02-23T01:53:42;27.57;;;17.00;;
5821;SDS011;2937;48.562;8.022;2023-02-23T01:58:37;24.53;;;16.00;;
5821;SDS011;2937;48.562;8.022;2023-02-23T02:03:32;31.33;;;16.83;;
5821;SDS011;2937;48.562;8.022;2023-02-23T02:08:29;28.40;;;17.70;;
5821;SDS011;2937;48.562;8.022;2023-02-23T02:13:23;26.47;;;17.50;;
5821;SDS011;2937;48.562;8.022;2023-02-23T02:18:18;24.60;;;16.57;;
5821;SDS011;2937;48.562;8.022;2023-02-23T02:23:21;23.20;;;16.47;;
5821;SDS011;2937;48.562;8.022;2023-02-23T02:28:30;23.17;;;15.07;;
5821;SDS011;2937;48.562;8.022;2023-02-23T02:33:35;24.97;;;15.07;;
5821;SDS011;2937;48.562;8.022;2023-02-23T02:38:37;20.67;;;13.70;;
5821;SDS011;2937;48.562;8.022;2023-02-23T02:43:36;22.73;;;13.37;;
5821;SDS011;2937;48.562;8.022;2023-02-23T02:48:33;18.37;;;12.13;;
5821;SDS011;2937;48.562;8.022;2023-02-23T02:53:30;18.50;;;12.70;;
5821;SDS011;2937;48.562;8.022;2023-02-23T02:58:27;18.63;;;12.87;;
5821;SDS011;2937;48.562;8.022;2023-02-23T03:03:27;21.50;;;13.50;;
5821;SDS011;2937;48.562;8.022;2023-02-23T03:08:39;18.13;;;12.70;;
5821;SDS011;2937;48.562;8.022;2023-02-23T03:14:00;22.37;;;13.70;;
5821;SDS011;2937;48.562;8.022;2023-02-23T03:19:12;20.37;;;13.33;;
5821;SDS011;2937;48.562;8.022;2023-02-23T03:24:26;26.27;;;13.90;;
5821;SDS011;2937;48.562;8.022;2023-02-23T03:29:44;19.57;;;13.70;;
5821;SDS011;2937;48.562;8.022;2023-02-23T03:34:59;21.70;;;13.90;;
5821;SDS011;2937;48.562;8.022;2023-02-23T03:40:13;21.43;;;13.10;;
5821;SDS011;2937;48.562;8.022;2023-02-23T03:45:27;21.33;;;14.30;;
5821;SDS011;2937;48.562;8.022;2023-02-23T03:50:39;23.27;;;14.07;;
5821;SDS011;2937;48.562;8.022;2023-02-23T03:55:50;26.60;;;13.73;;
5821;SDS011;2937;48.562;8.022;2023-02-23T04:01:04;21.20;;;13.60;;
5821;SDS011;2937;48.562;8.022;2023-02-23T04:06:16;20.87;;;12.50;;
5821;SDS011;2937;48.562;8.022;2023-02-23T04:11:27;22.13;;;13.33;;
5821;SDS011;2937;48.562;8.022;2023-02-23T04:16:41;17.50;;;12.63;;
5821;SDS011;2937;48.562;8.022;2023-02-23T04:21:33;17.33;;;12.80;;
5821;SDS011;2937;48.562;8.022;2023-02-23T04:26:25;20.43;;;13.00;;
5821;SDS011;2937;48.562;8.022;2023-02-23T04:31:18;18.83;;;13.00;;
5821;SDS011;2937;48.562;8.022;2023-02-23T04:36:15;15.20;;;10.53;;
5821;SDS011;2937;48.562;8.022;2023-02-23T04:41:08;16.40;;;11.60;;
5821;SDS011;2937;48.562;8.022;2023-02-23T04:46:01;20.53;;;11.50;;
5821;SDS011;2937;48.562;8.022;2023-02-23T04:50:54;15.90;;;10.13;;
5821;SDS011;2937;48.562;8.022;2023-02-23T04:55:48;19.57;;;11.60;;
5821;SDS011;2937;48.562;8.022;2023-02-23T05:00:40;18.23;;;11.00;;
5821;SDS011;2937;48.562;8.022;2023-02-23T05:05:33;15.90;;;11.60;;
5821;SDS011;2937;48.562;8.022;2023-02-23T05:10:25;18.87;;;11.63;;
5821;SDS011;2937;48.562;8.022;2023-02-23T05:15:20;18.90;;;12.70;;
5821;SDS011;2937;48.562;8.022;2023-02-23T05:20:13;19.53;;;11.77;;
5821;SDS011;2937;48.562;8.022;2023-02-23T05:25:06;19.67;;;13.17;;
5821;SDS011;2937;48.562;8.022;2023-02-23T05:30:00;24.60;;;14.87;;
5821;SDS011;2937;48.562;8.022;2023-02-23T05:34:54;35.47;;;18.47;;
5821;SDS011;2937;48.562;8.022;2023-02-23T05:39:47;26.37;;;16.30;;
5821;SDS011;2937;48.562;8.022;2023-02-23T05:44:39;28.50;;;16.87;;
5821;SDS011;2937;48.562;8.022;2023-02-23T05:49:32;28.03;;;19.20;;
5821;SDS011;2937;48.562;8.022;2023-02-23T05:54:26;27.23;;;17.20;;
5821;SDS011;2937;48.562;8.022;2023-02-23T05:59:18;31.10;;;19.33;;
5821;SDS011;2937;48.562;8.022;2023-02-23T06:04:11;30.03;;;19.77;;
5821;SDS011;2937;48.562;8.022;2023-02-23T06:09:04;27.20;;;16.00;;
5821;SDS011;2937;48.562;8.022;2023-02-23T06:13:58;27.30;;;18.47;;
5821;SDS011;2937;48.562;8.022;2023-02-23T06:18:51;29.30;;;16.67;;
5821;SDS011;2937;48.562;8.022;2023-02-23T06:23:43;22.07;;;15.00;;
5821;SDS011;2937;48.562;8.022;2023-02-23T06:28:36;22.27;;;13.47;;
5821;SDS011;2937;48.562;8.022;2023-02-23T06:33:30;18.30;;;12.87;;
5821;SDS011;2937;48.562;8.022;2023-02-23T06:38:23;24.07;;;14.20;;
5821;SDS011;2937;48.562;8.022;2023-02-23T06:43:16;25.73;;;17.70;;
5821;SDS011;2937;48.562;8.022;2023-02-23T06:48:09;29.43;;;19.93;;
5821;SDS011;2937;48.562;8.022;2023-02-23T06:53:02;36.00;;;25.30;;
5821;SDS011;2937;48.562;8.022;2023-02-23T06:57:55;41.00;;;27.97;;
5821;SDS011;2937;48.562;8.022;2023-02-23T07:02:48;42.80;;;28.50;;
5821;SDS011;2937;48.562;8.022;2023-02-23T07:07:41;49.17;;;33.60;;
5821;SDS011;2937;48.562;8.022;2023-02-23T07:12:35;59.67;;;41.37;;
5821;SDS011;2937;48.562;8.022;2023-02-23T07:17:28;51.30;;;36.20;;
5821;SDS011;2937;48.562;8.022;2023-02-23T07:22:30;46.90;;;33.77;;
5821;SDS011;2937;48.562;8.022;2023-02-23T07:27:24;33.90;;;23.33;;
5821;SDS011;2937;48.562;8.022;2023-02-23T07:32:19;28.10;;;18.03;;
5821;SDS011;2937;48.562;8.022;2023-02-23T07:37:12;36.53;;;25.70;;
5821;SDS011;2937;48.562;8.022;2023-02-23T07:42:04;39.37;;;28.90;;
5821;SDS011;2937;48.562;8.022;2023-02-23T07:46:57;42.30;;;28.17;;
5821;SDS011;2937;48.562;8.022;2023-02-23T07:51:51;38.63;;;27.73;;
5821;SDS011;2937;48.562;8.022;2023-02-23T07:56:44;38.60;;;26.07;;
5821;SDS011;2937;48.562;8.022;2023-02-23T08:01:36;34.50;;;24.00;;
5821;SDS011;2937;48.562;8.022;2023-02-23T08:06:29;33.77;;;25.43;;
5821;SDS011;2937;48.562;8.022;2023-02-23T08:11:23;47.63;;;34.83;;
5821;SDS011;2937;48.562;8.022;2023-02-23T08:16:18;43.77;;;26.47;;
5821;SDS011;2937;48.562;8.022;2023-02-23T08:21:11;36.20;;;23.17;;
5821;SDS011;2937;48.562;8.022;2023-02-23T08:26:04;39.00;;;23.83;;
5821;SDS011;2937;48.562;8.022;2023-02-23T08:30:58;43.73;;;30.53;;
5821;SDS011;2937;48.562;8.022;2023-02-23T08:35:51;58.07;;;38.50;;
5821;SDS011;2937;48.562;8.022;2023-02-23T08:40:44;43.53;;;30.47;;
5821;SDS011;2937;48.562;8.022;2023-02-23T08:45:37;33.10;;;23.90;;
5821;SDS011;2937;48.562;8.022;2023-02-23T08:50:31;37.00;;;23.50;;
5821;SDS011;2937;48.562;8.022;2023-02-23T08:55:23;29.30;;;22.27;;
5821;SDS011;2937;48.562;8.022;2023-02-23T09:00:16;27.97;;;21.10;;
5821;SDS011;2937;48.562;8.022;2023-02-23T09:05:09;29.70;;;21.40;;
5821;SDS011;2937;48.562;8.022;2023-02-23T09:10:03;35.03;;;24.00;;
5821;SDS011;2937;48.562;8.022;2023-02-23T09:14:56;32.37;;;22.97;;
5821;SDS011;2937;48.562;8.022;2023-02-23T09:19:49;23.80;;;18.30;;
5821;SDS011;2937;48.562;8.022;2023-02-23T09:24:41;26.50;;;15.03;;
5821;SDS011;2937;48.562;8.022;2023-02-23T09:29:35;24.17;;;16.30;;
5821;SDS011;2937;48.562;8.022;2023-02-23T09:34:31;24.77;;;16.43;;
5821;SDS011;2937;48.562;8.022;2023-02-23T09:39:27;27.67;;;20.50;;
5821;SDS011;2937;48.562;8.022;2023-02-23T09:44:34;28.50;;;20.80;;
5821;SDS011;2937;48.562;8.022;2023-02-23T09:49:31;32.03;;;19.73;;
5821;SDS011;2937;48.562;8.022;2023-02-23T09:54:26;23.53;;;16.37;;
5821;SDS011;2937;48.562;8.022;2023-02-23T09:59:22;27.77;;;17.57;;
5821;SDS011;2937;48.562;8.022;2023-02-23T10:04:16;25.20;;;16.80;;
5821;SDS011;2937;48.562;8.022;2023-02-23T10:09:14;31.40;;;17.63;;
5821;SDS011;2937;48.562;8.022;2023-02-23T10:14:13;29.30;;;19.70;;
5821;SDS011;2937;48.562;8.022;2023-02-23T10:19:10;24.57;;;19.00;;
5821;SDS011;2937;48.562;8.022;2023-02-23T10:24:04;30.27;;;19.20;;
5821;SDS011;2937;48.562;8.022;2023-02-23T10:28:59;28.33;;;18.43;;
5821;SDS011;2937;48.562;8.022;2023-02-23T10:33:53;26.60;;;17.03;;
5821;SDS011;2937;48.562;8.022;2023-02-23T10:38:46;28.13;;;16.67;;
5821;SDS011;2937;48.562;8.022;2023-02-23T10:43:39;26.83;;;16.63;;
5821;SDS011;2937;48.562;8.022;2023-02-23T10:48:35;18.73;;;15.30;;
5821;SDS011;2937;48.562;8.022;2023-02-23T10:53:31;22.30;;;14.87;;
5821;SDS011;2937;48.562;8.022;2023-02-23T10:58:26;22.10;;;16.30;;
5821;SDS011;2937;48.562;8.022;2023-02-23T11:03:22;22.03;;;16.17;;
5821;SDS011;2937;48.562;8.022;2023-02-23T11:08:22;24.33;;;16.57;;
5821;SDS011;2937;48.562;8.022;2023-02-23T11:13:20;21.97;;;15.13;;
5821;SDS011;2937;48.562;8.022;2023-02-23T11:18:18;23.60;;;14.87;;
5821;SDS011;2937;48.562;8.022;2023-02-23T11:23:11;17.33;;;13.80;;
5821;SDS011;2937;48.562;8.022;2023-02-23T11:28:14;21.63;;;14.43;;
5821;SDS011;2937;48.562;8.022;2023-02-23T11:33:12;19.70;;;13.70;;
5821;SDS011;2937;48.562;8.022;2023-02-23T11:38:13;20.67;;;12.93;;
5821;SDS011;2937;48.562;8.022;2023-02-23T11:43:07;19.60;;;12.63;;
5821;SDS011;2937;48.562;8.022;2023-02-23T11:48:01;15.23;;;11.43;;
5821;SDS011;2937;48.562;8.022;2023-02-23T11:52:57;19.30;;;12.57;;
5821;SDS011;2937;48.562;8.022;2023-02-23T11:57:51;19.40;;;12.17;;
5821;SDS011;2937;48.562;8.022;2023-02-23T12:02:48;19.40;;;12.13;;
5821;SDS011;2937;48.562;8.022;2023-02-23T12:07:45;19.90;;;12.43;;
5821;SDS011;2937;48.562;8.022;2023-02-23T12:12:47;19.00;;;12.80;;
5821;SDS011;2937;48.562;8.022;2023-02-23T12:17:43;17.90;;;12.83;;
5821;SDS011;2937;48.562;8.022;2023-02-23T12:22:38;20.00;;;12.03;;
5821;SDS011;2937;48.562;8.022;2023-02-23T12:27:33;20.70;;;12.60;;
5821;SDS011;2937;48.562;8.022;2023-02-23T12:32:33;19.50;;;12.90;;
5821;SDS011;2937;48.562;8.022;2023-02-23T12:37:33;17.37;;;12.10;;
5821;SDS011;2937;48.562;8.022;2023-02-23T12:42:32;18.20;;;11.50;;
5821;SDS011;2937;48.562;8.022;2023-02-23T12:47:31;19.63;;;12.40;;
5821;SDS011;2937;48.562;8.022;2023-02-23T12:52:26;18.40;;;12.00;;
5821;SDS011;2937;48.562;8.022;2023-02-23T12:57:22;15.70;;;10.40;;
5821;SDS011;2937;48.562;8.022;2023-02-23T13:02:17;21.83;;;10.57;;
5821;SDS011;2937;48.562;8.022;2023-02-23T13:07:16;17.80;;;11.27;;
5821;SDS011;2937;48.562;8.022;2023-02-23T13:12:13;20.10;;;11.73;;
5821;SDS011;2937;48.562;8.022;2023-02-23T13:17:10;17.03;;;11.33;;
5821;SDS011;2937;48.562;8.022;2023-02-23T13:22:09;15.13;;;11.10;;
5821;SDS011;2937;48.562;8.022;2023-02-23T13:27:11;16.70;;;11.07;;
5821;SDS011;2937;48.562;8.022;2023-02-23T13:32:08;19.03;;;11.80;;
5821;SDS011;2937;48.562;8.022;2023-02-23T13:37:03;17.03;;;11.10;;
5821;SDS011;2937;48.562;8.022;2023-02-23T13:42:02;19.93;;;11.30;;
5821;SDS011;2937;48.562;8.022;2023-02-23T13:46:59;15.97;;;11.30;;
5821;SDS011;2937;48.562;8.022;2023-02-23T13:51:53;18.10;;;11.33;;
5821;SDS011;2937;48.562;8.022;2023-02-23T13:56:48;19.40;;;11.13;;
5821;SDS011;2937;48.562;8.022;2023-02-23T14:01:42;19.00;;;11.40;;
5821;SDS011;2937;48.562;8.022;2023-02-23T14:06:36;19.17;;;11.03;;
5821;SDS011;2937;48.562;8.022;2023-02-23T14:16:41;20.83;;;11.50;;
5821;SDS011;2937;48.562;8.022;2023-02-23T14:21:40;19.00;;;10.40;;
5821;SDS011;2937;48.562;8.022;2023-02-23T14:26:38;17.97;;;11.70;;
5821;SDS011;2937;48.562;8.022;2023-02-23T14:31:33;18.20;;;11.40;;
5821;SDS011;2937;48.562;8.022;2023-02-23T14:36:33;18.83;;;11.97;;
5821;SDS011;2937;48.562;8.022;2023-02-23T14:41:38;17.80;;;11.70;;
5821;SDS011;2937;48.562;8.022;2023-02-23T14:46:32;18.30;;;11.80;;
5821;SDS011;2937;48.562;8.022;2023-02-23T14:51:29;23.03;;;12.50;;
5821;SDS011;2937;48.562;8.022;2023-02-23T14:56:23;21.23;;;12.43;;
5821;SDS011;2937;48.562;8.022;2023-02-23T15:01:34;23.87;;;13.87;;
5821;SDS011;2937;48.562;8.022;2023-02-23T15:06:27;21.40;;;13.47;;
5821;SDS011;2937;48.562;8.022;2023-02-23T15:11:20;22.40;;;14.50;;
5821;SDS011;2937;48.562;8.022;2023-02-23T15:16:14;20.13;;;13.20;;
5821;SDS011;2937;48.562;8.022;2023-02-23T15:21:09;19.40;;;13.93;;
5821;SDS011;2937;48.562;8.022;2023-02-23T15:26:14;23.87;;;15.03;;
5821;SDS011;2937;48.562;8.022;2023-02-23T15:31:14;24.80;;;15.77;;
5821;SDS011;2937;48.562;8.022;2023-02-23T15:36:11;21.73;;;14.60;;
5821;SDS011;2937;48.562;8.022;2023-02-23T15:41:06;22.43;;;15.47;;
5821;SDS011;2937;48.562;8.022;2023-02-23T15:46:00;22.23;;;14.97;;
5821;SDS011;2937;48.562;8.022;2023-02-23T15:50:55;24.87;;;14.60;;
5821;SDS011;2937;48.562;8.022;2023-02-23T15:55:52;24.37;;;16.60;;
5821;SDS011;2937;48.562;8.022;2023-02-23T16:00:48;25.67;;;15.63;;
5821;SDS011;2937;48.562;8.022;2023-02-23T16:05:52;27.70;;;16.47;;
5821;SDS011;2937;48.562;8.022;2023-02-23T16:10:45;27.07;;;17.03;;
5821;SDS011;2937;48.562;8.022;2023-02-23T16:15:39;39.90;;;18.00;;
5821;SDS011;2937;48.562;8.022;2023-02-23T16:20:33;28.63;;;18.13;;
5821;SDS011;2937;48.562;8.022;2023-02-23T16:25:28;33.47;;;22.20;;
5821;SDS011;2937;48.562;8.022;2023-02-23T16:30:22;30.30;;;19.90;;
5821;SDS011;2937;48.562;8.022;2023-02-23T16:35:32;25.43;;;17.90;;
5821;SDS011;2937;48.562;8.022;2023-02-23T16:40:25;37.23;;;23.00;;
5821;SDS011;2937;48.562;8.022;2023-02-23T16:45:18;30.03;;;19.87;;
5821;SDS011;2937;48.562;8.022;2023-02-23T16:50:11;30.87;;;20.37;;
5821;SDS011;2937;48.562;8.022;2023-02-23T16:55:13;30.67;;;21.03;;
5821;SDS011;2937;48.562;8.022;2023-02-23T17:00:09;32.53;;;22.93;;
5821;SDS011;2937;48.562;8.022;2023-02-23T17:05:09;45.90;;;25.40;;
5821;SDS011;2937;48.562;8.022;2023-02-23T17:10:04;50.53;;;32.63;;
5821;SDS011;2937;48.562;8.022;2023-02-23T17:14:58;48.30;;;29.90;;
5821;SDS011;2937;48.562;8.022;2023-02-23T17:19:51;55.77;;;35.40;;
5821;SDS011;2937;48.562;8.022;2023-02-23T17:24:43;58.57;;;37.50;;
5821;SDS011;2937;48.562;8.022;2023-02-23T17:29:36;58.20;;;34.63;;
5821;SDS011;2937;48.562;8.022;2023-02-23T17:34:30;47.90;;;30.13;;
5821;SDS011;2937;48.562;8.022;2023-02-23T17:39:23;45.60;;;28.90;;
5821;SDS011;2937;48.562;8.022;2023-02-23T17:44:18;53.67;;;32.20;;
5821;SDS011;2937;48.562;8.022;2023-02-23T17:49:11;57.87;;;36.00;;
5821;SDS011;2937;48.562;8.022;2023-02-23T17:54:05;56.73;;;34.87;;
5821;SDS011;2937;48.562;8.022;2023-02-23T17:58:57;74.37;;;44.50;;
5821;SDS011;2937;48.562;8.022;2023-02-23T18:03:50;78.27;;;44.50;;
5821;SDS011;2937;48.562;8.022;2023-02-23T18:08:43;69.27;;;37.17;;
5821;SDS011;2937;48.562;8.022;2023-02-23T18:13:38;86.20;;;49.30;;
5821;SDS011;2937;48.562;8.022;2023-02-23T18:18:33;78.77;;;43.10;;
5821;SDS011;2937;48.562;8.022;2023-02-23T18:23:26;73.10;;;40.90;;
5821;SDS011;2937;48.562;8.022;2023-02-23T18:28:21;71.70;;;39.30;;
5821;SDS011;2937;48.562;8.022;2023-02-23T18:33:15;74.93;;;41.17;;
5821;SDS011;2937;48.562;8.022;2023-02-23T18:38:09;150.97;;;44.90;;
5821;SDS011;2937;48.562;8.022;2023-02-23T18:43:02;72.83;;;38.33;;
5821;SDS011;2937;48.562;8.022;2023-02-23T18:47:55;73.83;;;38.30;;
5821;SDS011;2937;48.562;8.022;2023-02-23T18:52:49;66.07;;;35.10;;
5821;SDS011;2937;48.562;8.022;2023-02-23T18:57:42;68.07;;;37.00;;
5821;SDS011;2937;48.562;8.022;2023-02-23T19:02:35;88.27;;;45.40;;
5821;SDS011;2937;48.562;8.022;2023-02-23T19:07:27;95.10;;;45.40;;
5821;SDS011;2937;48.562;8.022;2023-02-23T19:12:22;77.57;;;41.97;;
5821;SDS011;2937;48.562;8.022;2023-02-23T19:17:14;69.13;;;40.60;;
5821;SDS011;2937;48.562;8.022;2023-02-23T19:22:07;70.13;;;40.60;;
5821;SDS011;2937;48.562;8.022;2023-02-23T19:27:00;55.67;;;35.40;;
5821;SDS011;2937;48.562;8.022;2023-02-23T19:31:54;57.07;;;35.30;;
5821;SDS011;2937;48.562;8.022;2023-02-23T19:36:47;57.80;;;36.87;;
5821;SDS011;2937;48.562;8.022;2023-02-23T19:41:41;53.70;;;35.07;;
5821;SDS011;2937;48.562;8.022;2023-02-23T19:46:34;60.97;;;35.67;;
5821;SDS011;2937;48.562;8.022;2023-02-23T19:51:29;62.37;;;37.50;;
5821;SDS011;2937;48.562;8.022;2023-02-23T19:56:22;62.63;;;37.57;;
5821;SDS011;2937;48.562;8.022;2023-02-23T20:01:15;140.00;;;109.20;;
5821;SDS011;2937;48.562;8.022;2023-02-23T20:06:09;53.50;;;34.93;;
5821;SDS011;2937;48.562;8.022;2023-02-23T20:11:05;54.17;;;33.50;;
5821;SDS011;2937;48.562;8.022;2023-02-23T20:15:59;54.83;;;33.20;;
5821;SDS011;2937;48.562;8.022;2023-02-23T20:20:51;54.53;;;32.73;;
5821;SDS011;2937;48.562;8.022;2023-02-23T20:25:44;52.70;;;33.10;;
5821;SDS011;2937;48.562;8.022;2023-02-23T20:30:38;53.77;;;30.73;;
5821;SDS011;2937;48.562;8.022;2023-02-23T20:35:31;51.43;;;32.97;;
5821;SDS011;2937;48.562;8.022;2023-02-23T20:40:24;52.90;;;33.80;;
5821;SDS011;2937;48.562;8.022;2023-02-23T20:45:18;52.30;;;32.77;;
5821;SDS011;2937;48.562;8.022;2023-02-23T20:50:12;52.40;;;32.37;;
5821;SDS011;2937;48.562;8.022;2023-02-23T20:55:06;50.27;;;29.73;;
5821;SDS011;2937;48.562;8.022;2023-02-23T20:59:59;50.67;;;31.93;;
5821;SDS011;2937;48.562;8.022;2023-02-23T21:04:59;52.13;;;31.47;;
5821;SDS011;2937;48.562;8.022;2023-02-23T21:09:53;58.87;;;34.37;;
5821;SDS011;2937;48.562;8.022;2023-02-23T21:14:51;63.00;;;36.33;;
5821;SDS011;2937;48.562;8.022;2023-02-23T21:19:44;63.67;;;40.03;;
5821;SDS011;2937;48.562;8.022;2023-02-23T21:24:36;60.23;;;37.17;;
5821;SDS011;2937;48.562;8.022;2023-02-23T21:29:32;57.10;;;36.27;;
5821;SDS011;2937;48.562;8.022;2023-02-23T21:34:25;78.50;;;48.23;;
5821;SDS011;2937;48.562;8.022;2023-02-23T21:39:17;84.37;;;53.60;;
5821;SDS011;2937;48.562;8.022;2023-02-23T21:44:11;85.70;;;55.47;;
5821;SDS011;2937;48.562;8.022;2023-02-23T21:49:05;68.33;;;44.00;;
5821;SDS011;2937;48.562;8.022;2023-02-23T21:54:00;69.00;;;47.17;;
5821;SDS011;2937;48.562;8.022;2023-02-23T21:58:53;68.33;;;45.47;;
5821;SDS011;2937;48.562;8.022;2023-02-23T22:03:46;71.87;;;45.73;;
5821;SDS011;2937;48.562;8.022;2023-02-23T22:08:40;62.60;;;40.20;;
5821;SDS011;2937;48.562;8.022;2023-02-23T22:13:35;58.23;;;36.73;;
5821;SDS011;2937;48.562;8.022;2023-02-23T22:18:27;56.60;;;35.53;;
5821;SDS011;2937;48.562;8.022;2023-02-23T22:23:20;55.73;;;37.03;;
5821;SDS011;2937;48.562;8.022;2023-02-23T22:28:14;59.73;;;38.40;;
5821;SDS011;2937;48.562;8.022;2023-02-23T22:33:06;57.10;;;36.83;;
5821;SDS011;2937;48.562;8.022;2023-02-23T22:37:59;59.57;;;39.50;;
5821;SDS011;2937;48.562;8.022;2023-02-23T22:42:52;40.70;;;25.83;;
5821;SDS011;2937;48.562;8.022;2023-02-23T22:47:46;37.47;;;25.97;;
5821;SDS011;2937;48.562;8.022;2023-02-23T22:52:39;36.30;;;21.00;;
5821;SDS011;2937;48.562;8.022;2023-02-23T22:57:33;27.40;;;19.60;;
5821;SDS011;2937;48.562;8.022;2023-02-23T23:02:26;38.47;;;23.10;;
5821;SDS011;2937;48.562;8.022;2023-02-23T23:07:23;43.97;;;26.70;;
5821;SDS011;2937;48.562;8.022;2023-02-23T23:12:16;40.53;;;26.97;;
5821;SDS011;2937;48.562;8.022;2023-02-23T23:17:09;43.00;;;28.70;;
5821;SDS011;2937;48.562;8.022;2023-02-23T23:22:03;41.63;;;27.30;;
5821;SDS011;2937;48.562;8.022;2023-02-23T23:26:57;47.60;;;29.40;;
5821;SDS011;2937;48.562;8.022;2023-02-23T23:31:51;43.80;;;28.43;;
5821;SDS011;2937;48.562;8.022;2023-02-23T23:36:46;43.50;;;25.90;;
5821;SDS011;2937;48.562;8.022;2023-02-23T23:41:39;48.77;;;30.10;;
5821;SDS011;2937;48.562;8.022;2023-02-23T23:46:35;55.53;;;35.30;;
5821;SDS011;2937;48.562;8.022;2023-02-23T23:51:29;65.60;;;37.27;;
5821;SDS011;2937;48.562;8.022;2023-02-23T23:56:23;54.50;;;34.10;;
